Main page
METAR-TAF:

METAR-TAF

Airports :

Isle of Man Airport

Isle of Man,

latitude: 54-05N, longitude: 004-38W, elevation: 17 m

Current weather observation

The report was made 22 minutes ago, at 07:20 UTC
Wind 22 kt from the Northwest
Temperature 10°C
Humidity 62%
Pressure 998 hPa
Visibility 10 km or more
Few clouds at a height of 2000 ft

METAR: EGNS 050720Z 32022KT 9999 FEW020 10/03 Q0998 NOSIG

Time: 08:42 (07:42 UTC)

Forecast

The report was made 2 hours and 42 minutes ago, at 05:00 UTC
Forecast valid from 05 at 06 UTC to 05 at 09 UTC
Wind 20 kt from the North/Northwest
Visibility 10 km or more
Scattered clouds at a height of 2000 ft

TAF: EGNS 050500Z 0506/0509 33020KT 9999 SCT020

Weather observations and forecasts of more than 4000 airports (METAR and TAF reports).

The available stations are represented by yellow and red dots on the map.

Hover mouse over dot to see the name of the station.

Then click to see weather observations and forecasts.

To change the map : click on the green buttons with a black cross to zoom in, on the green button with a dash to zoom out, or on the green arrows for adjacent maps.


METAR-TAF: